sensor_id;sensor_type;location;lat;lon;timestamp;pressure;altitude;pressure_sealevel;temperature;humidity
26861;BME280;37676;46.956;7.430;2022-08-19T00:01:15;94899.38;;;23.14;56.96
26861;BME280;37676;46.956;7.430;2022-08-19T00:03:41;94613.66;;;21.17;56.86
26861;BME280;37676;46.956;7.430;2022-08-19T00:06:06;95013.56;;;23.90;57.16
26861;BME280;37676;46.956;7.430;2022-08-19T00:08:31;94973.47;;;23.69;56.87
26861;BME280;37676;46.956;7.430;2022-08-19T00:10:57;95000.66;;;23.89;57.29
26861;BME280;37676;46.956;7.430;2022-08-19T00:15:48;94947.63;;;23.48;57.24
26861;BME280;37676;46.956;7.430;2022-08-19T00:18:13;94997.34;;;23.83;57.34
26861;BME280;37676;46.956;7.430;2022-08-19T00:20:38;94993.75;;;23.83;57.18
26861;BME280;37676;46.956;7.430;2022-08-19T00:23:06;94995.84;;;23.82;57.49
26861;BME280;37676;46.956;7.430;2022-08-19T00:25:31;94997.19;;;23.81;57.50
26861;BME280;37676;46.956;7.430;2022-08-19T00:27:57;95002.88;;;23.81;57.13
26861;BME280;37676;46.956;7.430;2022-08-19T00:30:23;95001.34;;;23.80;57.30
26861;BME280;37676;46.956;7.430;2022-08-19T00:32:49;94998.53;;;23.80;57.43
26861;BME280;37676;46.956;7.430;2022-08-19T00:35:14;95002.88;;;23.81;57.25
26861;BME280;37676;46.956;7.430;2022-08-19T00:37:40;94599.00;;;21.11;57.36
26861;BME280;37676;46.956;7.430;2022-08-19T00:40:10;94964.41;;;23.53;57.53
26861;BME280;37676;46.956;7.430;2022-08-19T00:42:35;95006.44;;;23.82;57.71
26861;BME280;37676;46.956;7.430;2022-08-19T00:45:01;95006.88;;;23.78;57.20
26861;BME280;37676;46.956;7.430;2022-08-19T00:47:27;94997.94;;;23.82;57.31
26861;BME280;37676;46.956;7.430;2022-08-19T00:49:56;94935.59;;;23.40;57.07
26861;BME280;37676;46.956;7.430;2022-08-19T00:52:32;94997.34;;;23.83;57.35
26861;BME280;37676;46.956;7.430;2022-08-19T00:55:00;94987.25;;;23.73;57.40
26861;BME280;37676;46.956;7.430;2022-08-19T00:57:38;94761.06;;;22.19;57.33
26861;BME280;37676;46.956;7.430;2022-08-19T01:00:09;94999.88;;;23.79;57.11
26861;BME280;37676;46.956;7.430;2022-08-19T01:02:36;95001.19;;;23.78;57.26
26861;BME280;37676;46.956;7.430;2022-08-19T01:05:06;94894.53;;;23.07;57.33
26861;BME280;37676;46.956;7.430;2022-08-19T01:07:34;94999.53;;;23.75;57.40
26861;BME280;37676;46.956;7.430;2022-08-19T01:10:00;94986.81;;;23.76;57.37
26861;BME280;37676;46.956;7.430;2022-08-19T01:12:26;94986.50;;;23.72;57.62
26861;BME280;37676;46.956;7.430;2022-08-19T01:14:52;94789.41;;;22.36;57.21
26861;BME280;37676;46.956;7.430;2022-08-19T01:17:18;94984.25;;;23.71;57.12
26861;BME280;37676;46.956;7.430;2022-08-19T01:19:45;94784.75;;;22.31;57.25
26861;BME280;37676;46.956;7.430;2022-08-19T01:24:47;94994.53;;;23.66;57.53
26861;BME280;37676;46.956;7.430;2022-08-19T01:27:12;94868.84;;;22.88;57.58
26861;BME280;37676;46.956;7.430;2022-08-19T01:29:40;94952.81;;;23.42;57.47
26861;BME280;37676;46.956;7.430;2022-08-19T01:32:06;94976.84;;;23.58;57.53
26861;BME280;37676;46.956;7.430;2022-08-19T01:34:32;94965.13;;;23.54;57.47
26861;BME280;37676;46.956;7.430;2022-08-19T01:36:59;94981.31;;;23.61;57.38
26861;BME280;37676;46.956;7.430;2022-08-19T01:39:26;94931.00;;;23.27;57.32
26861;BME280;37676;46.956;7.430;2022-08-19T01:41:51;94776.56;;;22.18;57.28
26861;BME280;37676;46.956;7.430;2022-08-19T01:44:20;94976.34;;;23.52;57.94
26861;BME280;37676;46.956;7.430;2022-08-19T01:46:49;94991.47;;;23.54;57.54
26861;BME280;37676;46.956;7.430;2022-08-19T01:49:19;94991.28;;;23.52;57.47
26861;BME280;37676;46.956;7.430;2022-08-19T01:51:46;94989.72;;;23.42;57.45
26861;BME280;37676;46.956;7.430;2022-08-19T01:54:13;94987.53;;;23.50;57.71
26861;BME280;37676;46.956;7.430;2022-08-19T01:56:40;94995.91;;;23.48;57.58
26861;BME280;37676;46.956;7.430;2022-08-19T01:59:12;94986.78;;;23.49;57.50
26861;BME280;37676;46.956;7.430;2022-08-19T02:01:40;94973.03;;;23.46;57.69
26861;BME280;37676;46.956;7.430;2022-08-19T02:04:05;94985.88;;;23.47;57.84
26861;BME280;37676;46.956;7.430;2022-08-19T02:06:31;94990.06;;;23.46;57.52
26861;BME280;37676;46.956;7.430;2022-08-19T02:08:58;95017.28;;;23.49;57.59
26861;BME280;37676;46.956;7.430;2022-08-19T02:11:29;94980.34;;;23.49;57.67
26861;BME280;37676;46.956;7.430;2022-08-19T02:13:56;94805.91;;;22.13;57.89
26861;BME280;37676;46.956;7.430;2022-08-19T02:16:23;94880.25;;;22.80;57.83
26861;BME280;37676;46.956;7.430;2022-08-19T02:18:48;94986.28;;;23.43;57.82
26861;BME280;37676;46.956;7.430;2022-08-19T02:21:19;94789.03;;;21.98;57.84
26861;BME280;37676;46.956;7.430;2022-08-19T02:23:45;94932.75;;;23.06;58.03
26861;BME280;37676;46.956;7.430;2022-08-19T02:26:11;94959.47;;;23.20;57.89
26861;BME280;37676;46.956;7.430;2022-08-19T02:28:38;95005.41;;;23.43;57.97
26861;BME280;37676;46.956;7.430;2022-08-19T02:31:09;95008.41;;;23.45;58.25
26861;BME280;37676;46.956;7.430;2022-08-19T02:33:35;94963.16;;;23.13;57.99
26861;BME280;37676;46.956;7.430;2022-08-19T02:36:04;95021.28;;;23.46;57.89
26861;BME280;37676;46.956;7.430;2022-08-19T02:38:29;95030.47;;;23.37;58.12
26861;BME280;37676;46.956;7.430;2022-08-19T02:41:01;95022.78;;;23.47;58.20
26861;BME280;37676;46.956;7.430;2022-08-19T02:43:28;95021.63;;;23.33;58.02
26861;BME280;37676;46.956;7.430;2022-08-19T02:45:54;94780.69;;;21.83;58.24
26861;BME280;37676;46.956;7.430;2022-08-19T02:48:22;95028.47;;;23.47;58.03
26861;BME280;37676;46.956;7.430;2022-08-19T02:50:49;95018.63;;;23.48;58.01
26861;BME280;37676;46.956;7.430;2022-08-19T02:53:22;95012.94;;;23.48;58.35
26861;BME280;37676;46.956;7.430;2022-08-19T02:55:49;95011.44;;;23.47;58.46
26861;BME280;37676;46.956;7.430;2022-08-19T02:58:15;94997.91;;;23.38;58.05
26861;BME280;37676;46.956;7.430;2022-08-19T03:00:45;95006.34;;;23.45;58.16
26861;BME280;37676;46.956;7.430;2022-08-19T03:03:11;94969.72;;;23.15;58.44
26861;BME280;37676;46.956;7.430;2022-08-19T03:05:37;94795.84;;;21.95;58.63
26861;BME280;37676;46.956;7.430;2022-08-19T03:08:02;95006.59;;;23.40;58.50
26861;BME280;37676;46.956;7.430;2022-08-19T03:10:29;94983.09;;;23.22;58.95
26861;BME280;37676;46.956;7.430;2022-08-19T03:12:54;95008.31;;;23.35;59.05
26861;BME280;37676;46.956;7.430;2022-08-19T03:15:19;95001.75;;;23.33;59.22
26861;BME280;37676;46.956;7.430;2022-08-19T03:17:45;94984.50;;;23.14;59.06
26861;BME280;37676;46.956;7.430;2022-08-19T03:20:10;95014.25;;;23.30;59.15
26861;BME280;37676;46.956;7.430;2022-08-19T03:22:36;95010.84;;;23.31;59.08
26861;BME280;37676;46.956;7.430;2022-08-19T03:25:01;95021.44;;;23.31;59.11
26861;BME280;37676;46.956;7.430;2022-08-19T03:27:27;95016.53;;;23.31;58.77
26861;BME280;37676;46.956;7.430;2022-08-19T03:29:52;95017.25;;;23.32;59.14
26861;BME280;37676;46.956;7.430;2022-08-19T03:32:17;94962.78;;;22.92;59.08
26861;BME280;37676;46.956;7.430;2022-08-19T03:34:43;95008.06;;;23.24;59.21
26861;BME280;37676;46.956;7.430;2022-08-19T03:37:10;95018.63;;;23.31;59.10
26861;BME280;37676;46.956;7.430;2022-08-19T03:39:39;95009.81;;;23.19;59.28
26861;BME280;37676;46.956;7.430;2022-08-19T03:42:05;95033.94;;;23.28;59.38
26861;BME280;37676;46.956;7.430;2022-08-19T03:44:31;95043.78;;;23.27;59.38
26861;BME280;37676;46.956;7.430;2022-08-19T03:46:58;95047.97;;;23.26;59.30
26861;BME280;37676;46.956;7.430;2022-08-19T03:49:28;94949.31;;;22.58;59.16
26861;BME280;37676;46.956;7.430;2022-08-19T03:51:55;95037.44;;;23.19;59.26
26861;BME280;37676;46.956;7.430;2022-08-19T03:54:22;94999.16;;;22.86;59.34
26861;BME280;37676;46.956;7.430;2022-08-19T03:56:50;95055.56;;;23.23;59.34
26861;BME280;37676;46.956;7.430;2022-08-19T03:59:27;95056.16;;;23.22;59.39
26861;BME280;37676;46.956;7.430;2022-08-19T04:01:55;94819.88;;;21.62;59.32
26861;BME280;37676;46.956;7.430;2022-08-19T04:04:21;95031.94;;;23.04;59.44
26861;BME280;37676;46.956;7.430;2022-08-19T04:06:47;95058.22;;;23.21;59.77
26861;BME280;37676;46.956;7.430;2022-08-19T04:09:13;95050.31;;;23.20;59.94
26861;BME280;37676;46.956;7.430;2022-08-19T04:11:42;95014.22;;;22.96;59.63
26861;BME280;37676;46.956;7.430;2022-08-19T04:14:09;95047.63;;;23.22;59.91
26861;BME280;37676;46.956;7.430;2022-08-19T04:16:35;95055.63;;;23.16;59.85
26861;BME280;37676;46.956;7.430;2022-08-19T04:19:03;95046.94;;;23.14;59.97
26861;BME280;37676;46.956;7.430;2022-08-19T04:21:28;94816.72;;;21.58;60.08
26861;BME280;37676;46.956;7.430;2022-08-19T04:23:55;95042.44;;;23.11;60.05
26861;BME280;37676;46.956;7.430;2022-08-19T04:26:23;95047.38;;;23.10;60.11
26861;BME280;37676;46.956;7.430;2022-08-19T04:28:49;95054.78;;;23.06;60.16
26861;BME280;37676;46.956;7.430;2022-08-19T04:31:22;95053.28;;;23.05;60.02
26861;BME280;37676;46.956;7.430;2022-08-19T04:33:58;95051.94;;;23.06;59.71
26861;BME280;37676;46.956;7.430;2022-08-19T04:36:29;95064.03;;;23.06;60.08
26861;BME280;37676;46.956;7.430;2022-08-19T04:38:58;95058.88;;;23.12;60.17
26861;BME280;37676;46.956;7.430;2022-08-19T04:41:23;95075.75;;;23.10;59.96
26861;BME280;37676;46.956;7.430;2022-08-19T04:44:08;95056.28;;;23.07;59.92
26861;BME280;37676;46.956;7.430;2022-08-19T04:46:33;95056.63;;;23.11;60.05
26861;BME280;37676;46.956;7.430;2022-08-19T04:49:00;95048.53;;;23.07;59.92
26861;BME280;37676;46.956;7.430;2022-08-19T04:51:26;95040.75;;;23.08;60.15
26861;BME280;37676;46.956;7.430;2022-08-19T04:53:52;95039.09;;;23.05;60.04
26861;BME280;37676;46.956;7.430;2022-08-19T04:56:19;95040.44;;;23.04;59.64
26861;BME280;37676;46.956;7.430;2022-08-19T04:58:46;94945.31;;;22.36;59.70
26861;BME280;37676;46.956;7.430;2022-08-19T05:01:13;94908.53;;;22.04;59.75
26861;BME280;37676;46.956;7.430;2022-08-19T05:03:39;95044.53;;;22.86;59.58
26861;BME280;37676;46.956;7.430;2022-08-19T05:06:09;95071.66;;;23.04;59.53
26861;BME280;37676;46.956;7.430;2022-08-19T05:08:37;95073.16;;;23.05;59.69
26861;BME280;37676;46.956;7.430;2022-08-19T05:11:15;95074.50;;;23.04;59.93
26861;BME280;37676;46.956;7.430;2022-08-19T05:13:44;95074.63;;;23.06;59.65
26861;BME280;37676;46.956;7.430;2022-08-19T05:16:11;94702.09;;;20.53;59.67
26861;BME280;37676;46.956;7.430;2022-08-19T05:18:37;95083.72;;;23.04;59.82
26861;BME280;37676;46.956;7.430;2022-08-19T05:21:21;95088.34;;;23.00;59.77
26861;BME280;37676;46.956;7.430;2022-08-19T05:24:06;95073.38;;;22.75;59.99
26861;BME280;37676;46.956;7.430;2022-08-19T05:26:39;95101.22;;;22.93;59.94
26861;BME280;37676;46.956;7.430;2022-08-19T05:29:05;95068.16;;;22.63;60.11
26861;BME280;37676;46.956;7.430;2022-08-19T05:31:31;95099.38;;;22.88;60.05
26861;BME280;37676;46.956;7.430;2022-08-19T05:33:56;94868.81;;;21.23;60.05
26861;BME280;37676;46.956;7.430;2022-08-19T05:36:27;95102.81;;;22.87;60.10
26861;BME280;37676;46.956;7.430;2022-08-19T05:38:53;95100.56;;;22.85;60.36
26861;BME280;37676;46.956;7.430;2022-08-19T05:41:20;95090.59;;;22.77;60.23
26861;BME280;37676;46.956;7.430;2022-08-19T05:43:48;95104.31;;;22.88;60.30
26861;BME280;37676;46.956;7.430;2022-08-19T05:46:17;95110.72;;;22.88;60.18
26861;BME280;37676;46.956;7.430;2022-08-19T05:48:43;95108.66;;;22.89;60.50
26861;BME280;37676;46.956;7.430;2022-08-19T05:51:09;95107.31;;;22.90;60.54
26861;BME280;37676;46.956;7.430;2022-08-19T05:53:35;94775.63;;;20.45;60.42
26861;BME280;37676;46.956;7.430;2022-08-19T05:56:08;95111.84;;;22.93;60.35
26861;BME280;37676;46.956;7.430;2022-08-19T05:58:35;95116.75;;;22.92;60.13
26861;BME280;37676;46.956;7.430;2022-08-19T06:01:00;95114.69;;;22.93;60.58
26861;BME280;37676;46.956;7.430;2022-08-19T06:03:32;95113.34;;;22.94;60.45
26861;BME280;37676;46.956;7.430;2022-08-19T06:05:59;95113.34;;;22.94;60.12
26861;BME280;37676;46.956;7.430;2022-08-19T06:08:26;95111.84;;;22.93;60.15
26861;BME280;37676;46.956;7.430;2022-08-19T06:10:52;95124.69;;;22.94;60.25
26861;BME280;37676;46.956;7.430;2022-08-19T06:13:17;95118.44;;;22.95;60.33
26861;BME280;37676;46.956;7.430;2022-08-19T06:15:44;95120.84;;;22.99;60.08
26861;BME280;37676;46.956;7.430;2022-08-19T06:18:12;95122.56;;;23.02;60.19
26861;BME280;37676;46.956;7.430;2022-08-19T06:20:37;95136.75;;;23.02;60.25
26861;BME280;37676;46.956;7.430;2022-08-19T06:23:03;95136.75;;;23.02;60.39
26861;BME280;37676;46.956;7.430;2022-08-19T06:25:28;95104.31;;;22.88;60.32
26861;BME280;37676;46.956;7.430;2022-08-19T06:27:54;94749.84;;;20.41;60.27
26861;BME280;37676;46.956;7.430;2022-08-19T06:30:19;95132.31;;;22.84;60.29
26861;BME280;37676;46.956;7.430;2022-08-19T06:32:44;95130.72;;;22.98;60.36
26861;BME280;37676;46.956;7.430;2022-08-19T06:35:10;94903.81;;;21.42;60.43
26861;BME280;37676;46.956;7.430;2022-08-19T06:37:37;95058.44;;;22.49;60.41
26861;BME280;37676;46.956;7.430;2022-08-19T06:40:02;95133.38;;;22.96;60.27
26861;BME280;37676;46.956;7.430;2022-08-19T06:42:28;95139.06;;;22.96;60.52
26861;BME280;37676;46.956;7.430;2022-08-19T06:44:54;95157.97;;;22.93;60.34
26861;BME280;37676;46.956;7.430;2022-08-19T06:47:21;95137.22;;;22.91;60.66
26861;BME280;37676;46.956;7.430;2022-08-19T06:49:46;95168.06;;;22.87;60.63
26861;BME280;37676;46.956;7.430;2022-08-19T06:52:12;95155.00;;;22.84;60.99
26861;BME280;37676;46.956;7.430;2022-08-19T06:54:38;95166.75;;;22.80;60.96
26861;BME280;37676;46.956;7.430;2022-08-19T06:57:05;95165.84;;;22.78;60.76
26861;BME280;37676;46.956;7.430;2022-08-19T06:59:32;94915.28;;;21.05;60.83
26861;BME280;37676;46.956;7.430;2022-08-19T07:01:59;95172.34;;;22.71;61.00
26861;BME280;37676;46.956;7.430;2022-08-19T07:04:28;95176.13;;;22.66;60.87
26861;BME280;37676;46.956;7.430;2022-08-19T07:07:16;95177.88;;;22.61;60.77
26861;BME280;37676;46.956;7.430;2022-08-19T07:09:43;95179.75;;;22.58;60.90
26861;BME280;37676;46.956;7.430;2022-08-19T07:12:11;95172.97;;;22.54;60.75
26861;BME280;37676;46.956;7.430;2022-08-19T07:14:38;95187.69;;;22.52;60.98
26861;BME280;37676;46.956;7.430;2022-08-19T07:17:07;95192.44;;;22.50;60.95
26861;BME280;37676;46.956;7.430;2022-08-19T07:19:33;95194.53;;;22.49;60.82
26861;BME280;37676;46.956;7.430;2022-08-19T07:22:01;95183.19;;;22.49;60.99
26861;BME280;37676;46.956;7.430;2022-08-19T07:24:27;95160.19;;;22.30;60.89
26861;BME280;37676;46.956;7.430;2022-08-19T07:26:56;95184.34;;;22.46;60.87
26861;BME280;37676;46.956;7.430;2022-08-19T07:29:26;95139.91;;;22.09;60.89
26861;BME280;37676;46.956;7.430;2022-08-19T07:31:52;95163.00;;;21.98;60.93
26861;BME280;37676;46.956;7.430;2022-08-19T07:34:22;95197.19;;;22.47;61.04
26861;BME280;37676;46.956;7.430;2022-08-19T07:36:48;95200.59;;;22.46;61.02
26861;BME280;37676;46.956;7.430;2022-08-19T07:39:17;95205.50;;;22.45;61.00
26861;BME280;37676;46.956;7.430;2022-08-19T07:41:44;95196.22;;;22.45;60.69
26861;BME280;37676;46.956;7.430;2022-08-19T07:44:11;95212.31;;;22.42;61.17
26861;BME280;37676;46.956;7.430;2022-08-19T07:46:39;95210.69;;;22.32;60.93
26861;BME280;37676;46.956;7.430;2022-08-19T07:49:06;95214.97;;;22.40;60.71
26861;BME280;37676;46.956;7.430;2022-08-19T07:51:32;95219.13;;;22.39;61.15
26861;BME280;37676;46.956;7.430;2022-08-19T07:53:57;95187.47;;;22.18;60.96
26861;BME280;37676;46.956;7.430;2022-08-19T07:56:23;95216.13;;;22.37;61.04
26861;BME280;37676;46.956;7.430;2022-08-19T07:58:52;95216.13;;;22.37;61.27
26861;BME280;37676;46.956;7.430;2022-08-19T08:01:21;95199.16;;;22.30;61.15
26861;BME280;37676;46.956;7.430;2022-08-19T08:03:49;95212.91;;;22.41;61.26
26861;BME280;37676;46.956;7.430;2022-08-19T08:06:33;95192.38;;;22.18;61.44
26861;BME280;37676;46.956;7.430;2022-08-19T08:09:24;95199.72;;;22.21;61.42
26861;BME280;37676;46.956;7.430;2022-08-19T08:11:54;95220.09;;;22.34;61.67
26861;BME280;37676;46.956;7.430;2022-08-19T08:14:22;95222.16;;;22.34;61.37
26861;BME280;37676;46.956;7.430;2022-08-19T08:16:49;95028.44;;;20.90;61.31
26861;BME280;37676;46.956;7.430;2022-08-19T08:19:16;95235.78;;;22.35;61.21
26861;BME280;37676;46.956;7.430;2022-08-19T08:21:42;95241.28;;;22.33;61.58
26861;BME280;37676;46.956;7.430;2022-08-19T08:24:08;95245.44;;;22.32;61.37
26861;BME280;37676;46.956;7.430;2022-08-19T08:26:34;95223.75;;;22.12;61.39
26861;BME280;37676;46.956;7.430;2022-08-19T08:28:59;95250.19;;;22.30;61.37
26861;BME280;37676;46.956;7.430;2022-08-19T08:31:24;95250.72;;;22.28;61.42
26861;BME280;37676;46.956;7.430;2022-08-19T08:33:50;95251.66;;;22.31;61.40
26861;BME280;37676;46.956;7.430;2022-08-19T08:36:16;95252.44;;;22.31;61.23
26861;BME280;37676;46.956;7.430;2022-08-19T08:38:42;95257.34;;;22.31;61.17
26861;BME280;37676;46.956;7.430;2022-08-19T08:43:54;95224.53;;;22.05;61.36
26861;BME280;37676;46.956;7.430;2022-08-19T08:46:36;95011.50;;;20.59;61.36
26861;BME280;37676;46.956;7.430;2022-08-19T08:49:19;95276.59;;;22.32;61.38
26861;BME280;37676;46.956;7.430;2022-08-19T08:51:54;95269.44;;;22.31;61.75
26861;BME280;37676;46.956;7.430;2022-08-19T08:54:24;95276.03;;;22.34;61.55
26861;BME280;37676;46.956;7.430;2022-08-19T08:56:53;95045.41;;;20.82;61.45
26861;BME280;37676;46.956;7.430;2022-08-19T08:59:35;95275.47;;;22.35;61.33
26861;BME280;37676;46.956;7.430;2022-08-19T09:02:01;95219.66;;;21.98;61.49
26861;BME280;37676;46.956;7.430;2022-08-19T09:04:27;95281.34;;;22.37;61.61
26861;BME280;37676;46.956;7.430;2022-08-19T09:07:15;95290.56;;;22.38;61.74
26861;BME280;37676;46.956;7.430;2022-08-19T09:09:50;95276.41;;;22.30;61.64
26861;BME280;37676;46.956;7.430;2022-08-19T09:14:53;95293.03;;;22.41;61.63
26861;BME280;37676;46.956;7.430;2022-08-19T09:17:24;95263.41;;;22.20;61.74
26861;BME280;37676;46.956;7.430;2022-08-19T09:19:56;95270.94;;;22.32;61.70
26861;BME280;37676;46.956;7.430;2022-08-19T09:22:22;95289.59;;;22.50;61.69
26861;BME280;37676;46.956;7.430;2022-08-19T09:24:52;95295.84;;;22.56;61.73
26861;BME280;37676;46.956;7.430;2022-08-19T09:27:19;95038.03;;;20.87;61.72
26861;BME280;37676;46.956;7.430;2022-08-19T09:29:46;95128.19;;;21.43;62.01
26861;BME280;37676;46.956;7.430;2022-08-19T09:32:14;95278.84;;;22.41;62.14
26861;BME280;37676;46.956;7.430;2022-08-19T09:34:39;95287.53;;;22.43;62.21
26861;BME280;37676;46.956;7.430;2022-08-19T09:37:05;95272.09;;;22.29;62.05
26861;BME280;37676;46.956;7.430;2022-08-19T09:39:30;95315.50;;;22.62;62.04
26861;BME280;37676;46.956;7.430;2022-08-19T09:41:56;95024.88;;;20.66;62.06
26861;BME280;37676;46.956;7.430;2022-08-19T09:44:21;95323.78;;;22.68;61.84
26861;BME280;37676;46.956;7.430;2022-08-19T09:46:46;95329.84;;;22.72;62.12
26861;BME280;37676;46.956;7.430;2022-08-19T09:49:12;95321.50;;;22.74;61.70
26861;BME280;37676;46.956;7.430;2022-08-19T09:51:37;95221.53;;;21.96;61.78
26861;BME280;37676;46.956;7.430;2022-08-19T09:54:03;94935.91;;;20.15;61.67
26861;BME280;37676;46.956;7.430;2022-08-19T09:56:30;95340.75;;;22.83;61.79
26861;BME280;37676;46.956;7.430;2022-08-19T09:59:00;95338.09;;;22.85;61.84
26861;BME280;37676;46.956;7.430;2022-08-19T10:01:28;95106.84;;;21.34;62.00
26861;BME280;37676;46.956;7.430;2022-08-19T10:03:56;95335.81;;;22.91;61.89
26861;BME280;37676;46.956;7.430;2022-08-19T10:06:25;95333.91;;;22.93;62.04
26861;BME280;37676;46.956;7.430;2022-08-19T10:08:55;95175.84;;;21.77;62.05
26861;BME280;37676;46.956;7.430;2022-08-19T10:11:21;95342.19;;;22.99;62.15
26861;BME280;37676;46.956;7.430;2022-08-19T10:13:47;95339.53;;;23.01;62.17
26861;BME280;37676;46.956;7.430;2022-08-19T10:16:16;95021.66;;;20.93;61.88
26861;BME280;37676;46.956;7.430;2022-08-19T10:18:43;95338.56;;;23.06;61.89
26861;BME280;37676;46.956;7.430;2022-08-19T10:21:17;95341.03;;;23.09;62.09
26861;BME280;37676;46.956;7.430;2022-08-19T10:23:45;95351.22;;;23.12;62.11
26861;BME280;37676;46.956;7.430;2022-08-19T10:26:14;94948.94;;;20.40;61.92
26861;BME280;37676;46.956;7.430;2022-08-19T10:28:39;95342.50;;;23.18;62.37
26861;BME280;37676;46.956;7.430;2022-08-19T10:31:07;95107.97;;;21.54;62.24
26861;BME280;37676;46.956;7.430;2022-08-19T10:33:34;95340.19;;;23.24;62.03
26861;BME280;37676;46.956;7.430;2022-08-19T10:36:02;95346.06;;;23.26;62.46
26861;BME280;37676;46.956;7.430;2022-08-19T10:38:29;95123.75;;;21.72;61.94
26861;BME280;37676;46.956;7.430;2022-08-19T10:40:56;95332.63;;;23.19;62.11
26861;BME280;37676;46.956;7.430;2022-08-19T10:43:21;95349.25;;;23.30;62.00
26861;BME280;37676;46.956;7.430;2022-08-19T10:45:54;95167.09;;;22.12;61.80
26861;BME280;37676;46.956;7.430;2022-08-19T10:48:24;95113.19;;;21.80;61.88
26861;BME280;37676;46.956;7.430;2022-08-19T10:50:49;95343.53;;;23.37;61.74
26861;BME280;37676;46.956;7.430;2022-08-19T10:53:33;95337.28;;;23.39;62.08
26861;BME280;37676;46.956;7.430;2022-08-19T10:55:58;95338.03;;;23.39;61.74
26861;BME280;37676;46.956;7.430;2022-08-19T10:58:44;95316.31;;;23.27;61.71
26861;BME280;37676;46.956;7.430;2022-08-19T11:01:09;95342.00;;;23.44;61.56
26861;BME280;37676;46.956;7.430;2022-08-19T11:03:35;95345.03;;;23.46;61.71
26861;BME280;37676;46.956;7.430;2022-08-19T11:06:03;95338.19;;;23.49;61.46
26861;BME280;37676;46.956;7.430;2022-08-19T11:08:29;95341.19;;;23.51;61.34
26861;BME280;37676;46.956;7.430;2022-08-19T11:10:58;95304.19;;;23.34;61.22
26861;BME280;37676;46.956;7.430;2022-08-19T11:13:27;95337.19;;;23.54;61.17
26861;BME280;37676;46.956;7.430;2022-08-19T11:16:00;95343.81;;;23.56;61.23
26861;BME280;37676;46.956;7.430;2022-08-19T11:18:26;94916.28;;;20.77;61.20
26861;BME280;37676;46.956;7.430;2022-08-19T11:20:52;95308.75;;;23.37;61.31
26861;BME280;37676;46.956;7.430;2022-08-19T11:23:17;95329.03;;;23.58;61.13
26861;BME280;37676;46.956;7.430;2022-08-19T11:25:43;95336.22;;;23.59;61.11
26861;BME280;37676;46.956;7.430;2022-08-19T11:28:11;95272.16;;;23.09;60.76
26861;BME280;37676;46.956;7.430;2022-08-19T11:30:38;95334.00;;;23.50;61.05
26861;BME280;37676;46.956;7.430;2022-08-19T11:33:03;95342.66;;;23.59;61.04
26861;BME280;37676;46.956;7.430;2022-08-19T11:35:29;95349.09;;;23.60;61.11
26861;BME280;37676;46.956;7.430;2022-08-19T11:37:54;95344.75;;;23.59;60.71
26861;BME280;37676;46.956;7.430;2022-08-19T11:40:21;95339.22;;;23.61;61.01
26861;BME280;37676;46.956;7.430;2022-08-19T11:42:46;95250.66;;;22.98;60.96
26861;BME280;37676;46.956;7.430;2022-08-19T11:45:21;95338.38;;;23.51;60.92
26861;BME280;37676;46.956;7.430;2022-08-19T11:47:47;95351.94;;;23.60;60.68
26861;BME280;37676;46.956;7.430;2022-08-19T11:50:13;95353.28;;;23.59;60.67
26861;BME280;37676;46.956;7.430;2022-08-19T11:52:39;95137.44;;;22.13;60.64
26861;BME280;37676;46.956;7.430;2022-08-19T11:55:05;95334.81;;;23.43;60.62
26861;BME280;37676;46.956;7.430;2022-08-19T11:57:31;95385.84;;;23.58;60.51
26861;BME280;37676;46.956;7.430;2022-08-19T11:59:56;95359.50;;;23.57;60.67
26861;BME280;37676;46.956;7.430;2022-08-19T12:02:21;95292.22;;;23.11;60.84
26861;BME280;37676;46.956;7.430;2022-08-19T12:04:48;95331.59;;;23.39;60.89
26861;BME280;37676;46.956;7.430;2022-08-19T12:07:13;94980.19;;;21.03;60.91
26861;BME280;37676;46.956;7.430;2022-08-19T12:09:38;95353.31;;;23.51;61.06
26861;BME280;37676;46.956;7.430;2022-08-19T12:12:04;95315.97;;;23.23;61.26
26861;BME280;37676;46.956;7.430;2022-08-19T12:14:30;95366.66;;;23.34;61.31
26861;BME280;37676;46.956;7.430;2022-08-19T12:16:57;95353.38;;;23.44;61.05
26861;BME280;37676;46.956;7.430;2022-08-19T12:19:22;95357.53;;;23.43;61.09
26861;BME280;37676;46.956;7.430;2022-08-19T12:21:50;95364.72;;;23.44;61.31
26861;BME280;37676;46.956;7.430;2022-08-19T12:24:15;95364.72;;;23.44;61.45
26861;BME280;37676;46.956;7.430;2022-08-19T12:26:45;95363.19;;;23.43;61.15
26861;BME280;37676;46.956;7.430;2022-08-19T12:29:10;95366.63;;;23.41;61.15
26861;BME280;37676;46.956;7.430;2022-08-19T12:31:36;95351.38;;;23.29;60.96
26861;BME280;37676;46.956;7.430;2022-08-19T12:34:01;95344.34;;;23.23;60.94
26861;BME280;37676;46.956;7.430;2022-08-19T12:36:27;95368.00;;;23.33;61.08
26861;BME280;37676;46.956;7.430;2022-08-19T12:38:53;95366.66;;;23.34;60.88
26861;BME280;37676;46.956;7.430;2022-08-19T12:41:19;95158.84;;;21.92;61.00
26861;BME280;37676;46.956;7.430;2022-08-19T12:43:47;95372.34;;;23.34;60.94
26861;BME280;37676;46.956;7.430;2022-08-19T12:46:14;95369.50;;;23.34;61.07
26861;BME280;37676;46.956;7.430;2022-08-19T12:48:39;95375.00;;;23.32;61.09
26861;BME280;37676;46.956;7.430;2022-08-19T12:51:09;95369.31;;;23.32;60.80
26861;BME280;37676;46.956;7.430;2022-08-19T12:53:36;95322.50;;;23.01;60.99
26861;BME280;37676;46.956;7.430;2022-08-19T12:56:02;95371.97;;;23.30;60.99
26861;BME280;37676;46.956;7.430;2022-08-19T12:58:28;95341.78;;;23.10;61.12
26861;BME280;37676;46.956;7.430;2022-08-19T13:00:54;95364.78;;;23.29;60.91
26861;BME280;37676;46.956;7.430;2022-08-19T13:03:19;95365.56;;;23.29;61.04
26861;BME280;37676;46.956;7.430;2022-08-19T13:05:45;95370.44;;;23.29;61.10
26861;BME280;37676;46.956;7.430;2022-08-19T13:08:10;95373.09;;;23.27;61.06
26861;BME280;37676;46.956;7.430;2022-08-19T13:10:36;95371.25;;;23.29;61.02
26861;BME280;37676;46.956;7.430;2022-08-19T13:13:06;95284.44;;;22.72;60.70